Time;durP1;ratioP1;P1;durP2;ratioP2;P2;SDS_P1;SDS_P2;PMS_P1;PMS_P2;Temp;Humidity;BMP_temperature;BMP_pressure;BME280_temperature;BME280_humidity;BME280_pressure;Samples;Min_cycle;Max_cycle;Signal;HPM_P1;HPM_P2
2023/07/19 00:00:38;;;;;;;4.75;2.70;;;22.50;99.60;;;;;;5034893;28;20029;-78
2023/07/19 00:03:03;;;;;;;4.10;2.60;;;22.50;99.80;;;;;;5034376;28;20377;-77
2023/07/19 00:05:29;;;;;;;6.63;2.60;;;22.40;99.80;;;;;;5033918;28;20046;-78
2023/07/19 00:07:55;;;;;;;6.38;2.58;;;22.40;99.90;;;;;;5033731;28;20040;-77
2023/07/19 00:10:21;;;;;;;4.80;2.55;;;22.40;99.90;;;;;;5033370;28;20029;-78
2023/07/19 00:12:46;;;;;;;4.40;2.60;;;22.30;99.90;;;;;;5016866;28;20119;-77
2023/07/19 00:15:12;;;;;;;4.47;2.40;;;22.30;99.90;;;;;;5015926;28;20351;-78
2023/07/19 00:17:38;;;;;;;4.40;2.60;;;22.20;99.90;;;;;;5016499;28;20044;-77
2023/07/19 00:20:04;;;;;;;5.13;2.53;;;22.10;99.90;;;;;;5016506;28;20355;-77
2023/07/19 00:22:31;;;;;;;5.80;2.78;;;22.10;99.90;;;;;;5033408;28;20013;-77
2023/07/19 00:24:57;;;;;;;4.03;2.28;;;22.10;99.90;;;;;;5034012;28;20025;-77
2023/07/19 00:27:22;;;;;;;4.43;2.90;;;22.00;99.90;;;;;;5033225;28;20043;-77
2023/07/19 00:29:48;;;;;;;5.68;2.80;;;22.00;99.90;;;;;;5016262;28;20048;-77
2023/07/19 00:32:13;;;;;;;6.32;2.60;;;22.00;99.90;;;;;;5033235;28;20028;-78
2023/07/19 00:34:39;;;;;;;5.75;2.72;;;22.00;99.90;;;;;;5015972;28;20115;-77
2023/07/19 00:37:05;;;;;;;3.85;2.47;;;22.00;99.90;;;;;;5033425;28;20044;-77
2023/07/19 00:39:30;;;;;;;5.78;2.55;;;22.00;99.90;;;;;;5015674;28;20025;-77
2023/07/19 00:41:57;;;;;;;5.15;2.88;;;22.00;99.90;;;;;;5016038;28;20022;-76
2023/07/19 00:48:21;;;;;;;;;;;21.90;99.90;;;;;;5033887;28;20040;-77
2023/07/19 00:50:52;;;;;;;6.28;2.90;;;21.90;99.90;;;;;;5033392;28;19924;-77
2023/07/19 00:53:19;;;;;;;5.72;3.50;;;21.80;99.90;;;;;;5032552;28;20187;-78
2023/07/19 00:55:49;;;;;;;7.22;2.90;;;21.80;99.90;;;;;;5033674;28;20104;-77
2023/07/19 00:58:16;;;;;;;5.78;3.05;;;21.70;99.90;;;;;;5015206;28;20034;-78
2023/07/19 01:00:42;;;;;;;7.97;3.17;;;21.70;99.90;;;;;;5033487;28;20025;-78
2023/07/19 01:03:08;;;;;;;6.60;2.85;;;21.70;99.90;;;;;;5033325;28;20210;-78
2023/07/19 01:05:34;;;;;;;7.15;3.17;;;21.60;99.90;;;;;;5015391;28;20060;-78
2023/07/19 01:07:59;;;;;;;5.38;2.63;;;21.60;99.90;;;;;;5033479;28;20072;-78
2023/07/19 01:10:29;;;;;;;6.75;3.00;;;21.60;99.90;;;;;;5031809;28;20379;-78
2023/07/19 01:13:05;;;;;;;5.63;3.05;;;21.60;99.90;;;;;;5033357;28;20032;-78
2023/07/19 01:15:31;;;;;;;7.32;2.97;;;21.50;99.90;;;;;;5014826;28;20025;-78
2023/07/19 01:17:57;;;;;;;8.80;3.40;;;21.50;99.90;;;;;;5032713;28;20064;-77
2023/07/19 01:20:22;;;;;;;5.47;3.10;;;21.50;99.90;;;;;;5032256;28;20482;-78
2023/07/19 01:22:48;;;;;;;5.70;3.00;;;21.50;99.90;;;;;;5032729;28;20029;-77
2023/07/19 01:25:13;;;;;;;7.88;3.08;;;21.40;99.90;;;;;;5032675;28;20030;-79
2023/07/19 01:27:40;;;;;;;8.68;3.55;;;21.40;99.90;;;;;;5015169;28;20033;-78
2023/07/19 01:30:07;;;;;;;7.60;2.88;;;21.40;99.90;;;;;;5015601;28;20030;-78
2023/07/19 01:32:32;;;;;;;8.38;3.65;;;21.40;99.90;;;;;;5014781;28;20021;-77
2023/07/19 01:34:58;;;;;;;7.30;3.05;;;21.30;99.90;;;;;;5033588;28;20036;-78
2023/07/19 01:37:24;;;;;;;8.18;3.30;;;21.30;99.90;;;;;;5015044;28;20532;-77
2023/07/19 01:39:50;;;;;;;6.40;3.13;;;21.40;99.90;;;;;;5033530;28;20421;-77
2023/07/19 01:42:16;;;;;;;6.10;3.35;;;21.30;99.90;;;;;;5014943;28;20030;-78
2023/07/19 01:44:42;;;;;;;6.20;3.30;;;21.30;99.90;;;;;;5015032;28;20029;-77
2023/07/19 01:47:08;;;;;;;5.35;3.03;;;21.30;99.90;;;;;;5015332;28;20056;-77
2023/07/19 01:49:34;;;;;;;6.90;3.30;;;21.30;99.90;;;;;;5032612;28;20029;-77
2023/07/19 01:51:59;;;;;;;7.82;3.08;;;21.20;99.90;;;;;;5032869;28;20425;-77
2023/07/19 01:54:25;;;;;;;7.07;3.13;;;21.20;99.90;;;;;;5032658;28;20068;-78
2023/07/19 01:56:51;;;;;;;7.65;2.92;;;21.20;99.90;;;;;;5032851;28;20033;-76
2023/07/19 01:59:16;;;;;;;7.78;3.53;;;21.20;99.90;;;;;;5014660;28;20064;-77
2023/07/19 02:01:43;;;;;;;7.25;3.50;;;21.20;99.90;;;;;;5031693;28;20022;-76
2023/07/19 02:04:09;;;;;;;7.72;3.05;;;21.20;99.90;;;;;;5017148;28;20045;-76
2023/07/19 02:06:35;;;;;;;5.35;3.20;;;21.10;99.90;;;;;;5018447;28;20065;-77
2023/07/19 02:09:00;;;;;;;10.00;3.25;;;21.10;99.90;;;;;;5018741;28;20445;-76
2023/07/19 02:11:26;;;;;;;7.75;3.25;;;21.10;99.90;;;;;;5017940;28;20021;-76
2023/07/19 02:13:51;;;;;;;3.97;2.60;;;21.10;99.90;;;;;;5018507;28;20151;-76
2023/07/19 02:16:17;;;;;;;4.55;3.22;;;21.20;99.90;;;;;;5035528;28;20022;-76
2023/07/19 02:18:42;;;;;;;5.38;3.28;;;21.20;99.90;;;;;;5018383;28;20025;-76
2023/07/19 02:21:08;;;;;;;5.72;3.13;;;21.20;99.90;;;;;;5036194;28;20029;-76
2023/07/19 02:23:34;;;;;;;4.38;2.83;;;21.10;99.90;;;;;;5018068;28;20030;-76
2023/07/19 02:26:00;;;;;;;5.65;2.65;;;21.20;99.90;;;;;;5036012;28;20024;-77
2023/07/19 02:28:25;;;;;;;8.32;3.03;;;21.10;99.90;;;;;;5034373;28;20061;-77
2023/07/19 02:30:51;;;;;;;5.00;3.20;;;21.10;99.90;;;;;;5036506;28;20067;-77
2023/07/19 02:33:17;;;;;;;4.55;2.58;;;21.10;99.90;;;;;;5018191;28;20029;-78
2023/07/19 02:35:42;;;;;;;5.38;2.83;;;21.10;99.90;;;;;;5017544;28;20030;-77
2023/07/19 02:38:09;;;;;;;4.88;3.03;;;21.00;99.90;;;;;;5035680;28;20048;-77
2023/07/19 02:40:35;;;;;;;5.20;2.85;;;21.00;99.90;;;;;;5017857;28;20022;-77
2023/07/19 02:43:00;;;;;;;6.82;3.10;;;21.00;99.90;;;;;;5034555;28;20025;-77
2023/07/19 02:45:26;;;;;;;5.63;3.53;;;21.00;99.90;;;;;;5017918;28;20026;-78
2023/07/19 02:47:52;;;;;;;6.63;3.33;;;21.00;99.90;;;;;;5035489;28;20029;-77
2023/07/19 02:50:20;;;;;;;5.53;2.90;;;21.00;99.90;;;;;;5034945;28;20382;-79
2023/07/19 02:52:47;;;;;;;6.30;3.38;;;21.00;99.90;;;;;;5035609;28;20036;-77
2023/07/19 02:55:13;;;;;;;5.45;3.28;;;21.00;99.90;;;;;;5018056;28;20025;-77
2023/07/19 02:57:39;;;;;;;6.47;2.92;;;20.90;99.90;;;;;;5017121;28;20025;-76
2023/07/19 03:00:06;;;;;;;6.05;2.92;;;20.90;99.90;;;;;;5017807;28;20458;-77
2023/07/19 03:02:32;;;;;;;7.40;3.13;;;20.90;99.90;;;;;;5034843;28;20021;-78
2023/07/19 03:04:58;;;;;;;6.32;3.20;;;20.90;99.90;;;;;;5017999;28;20060;-77
2023/07/19 03:07:24;;;;;;;7.97;3.40;;;20.80;99.90;;;;;;5017306;28;20056;-77
2023/07/19 03:09:50;;;;;;;6.10;3.17;;;20.80;99.90;;;;;;5035457;28;20032;-77
2023/07/19 03:12:16;;;;;;;7.15;3.65;;;20.80;99.90;;;;;;5035283;28;20029;-77
2023/07/19 03:14:41;;;;;;;5.82;3.17;;;20.70;99.90;;;;;;5034489;28;20029;-77
2023/07/19 03:17:07;;;;;;;6.65;3.17;;;20.80;99.90;;;;;;5035321;28;20041;-77
2023/07/19 03:19:33;;;;;;;4.45;2.97;;;20.80;99.90;;;;;;5017602;28;20029;-77
2023/07/19 03:21:58;;;;;;;5.85;3.03;;;20.80;99.90;;;;;;5017539;28;20076;-77
2023/07/19 03:24:24;;;;;;;5.90;2.92;;;20.80;99.90;;;;;;5034843;28;20030;-77
2023/07/19 03:26:50;;;;;;;6.22;2.97;;;20.80;99.90;;;;;;5017347;28;20129;-77
2023/07/19 03:29:15;;;;;;;7.18;3.35;;;20.80;99.90;;;;;;5017622;28;20071;-77
2023/07/19 03:31:41;;;;;;;5.93;2.90;;;20.80;99.90;;;;;;5017332;28;20021;-77
2023/07/19 03:34:06;;;;;;;7.80;3.22;;;20.80;99.90;;;;;;5017466;28;20083;-77
2023/07/19 03:36:32;;;;;;;8.55;3.30;;;20.80;99.90;;;;;;5017001;28;20025;-77
2023/07/19 03:38:58;;;;;;;7.13;3.05;;;20.70;99.90;;;;;;5017498;28;20036;-77
2023/07/19 03:41:23;;;;;;;4.82;2.92;;;20.70;99.90;;;;;;5034470;28;20572;-78
2023/07/19 03:43:49;;;;;;;6.40;3.22;;;20.70;99.90;;;;;;5034537;28;20034;-77
2023/07/19 03:46:15;;;;;;;8.40;2.83;;;20.70;99.90;;;;;;5017372;28;20406;-77
2023/07/19 03:48:40;;;;;;;5.65;2.90;;;20.70;99.90;;;;;;5016585;28;20024;-76
2023/07/19 03:51:06;;;;;;;5.38;2.80;;;20.60;99.90;;;;;;5034677;28;20026;-77
2023/07/19 03:53:32;;;;;;;8.55;3.20;;;20.60;99.90;;;;;;5016760;28;20072;-77
2023/07/19 03:55:59;;;;;;;4.43;2.75;;;20.60;99.90;;;;;;5017171;28;20033;-77
2023/07/19 03:58:25;;;;;;;7.25;3.10;;;20.70;99.90;;;;;;5033962;28;20043;-77
2023/07/19 04:00:57;;;;;;;4.65;2.97;;;20.60;99.90;;;;;;5017019;28;20025;-77
2023/07/19 04:03:24;;;;;;;7.40;3.30;;;20.60;99.90;;;;;;5016210;28;20030;-77
2023/07/19 04:05:51;;;;;;;8.55;2.97;;;20.60;99.90;;;;;;5034054;28;20045;-77
2023/07/19 04:08:16;;;;;;;7.28;3.17;;;20.60;99.90;;;;;;5033880;28;20058;-77
2023/07/19 04:10:42;;;;;;;5.32;2.78;;;20.50;99.90;;;;;;5016188;28;20025;-77
2023/07/19 04:13:10;;;;;;;7.95;3.38;;;20.50;99.90;;;;;;5034210;28;20025;-77
2023/07/19 04:15:36;;;;;;;7.90;2.83;;;20.50;99.90;;;;;;5015925;28;20096;-77
2023/07/19 04:18:02;;;;;;;5.20;2.90;;;20.50;99.90;;;;;;5032975;28;20471;-77
2023/07/19 04:20:29;;;;;;;5.03;3.05;;;20.50;99.90;;;;;;5016369;28;20026;-77
2023/07/19 04:22:54;;;;;;;5.25;3.22;;;20.60;99.90;;;;;;5016497;28;20048;-77
2023/07/19 04:25:21;;;;;;;6.57;2.97;;;20.50;99.90;;;;;;5016332;28;20454;-77
2023/07/19 04:27:47;;;;;;;4.70;2.80;;;20.50;99.90;;;;;;5014870;28;20036;-77
2023/07/19 04:30:13;;;;;;;5.57;2.60;;;20.50;99.90;;;;;;5016631;28;20466;-77
2023/07/19 04:32:38;;;;;;;7.53;3.17;;;20.50;99.90;;;;;;5015439;28;20066;-78
2023/07/19 04:35:06;;;;;;;9.82;3.00;;;20.50;99.90;;;;;;5016258;28;20033;-77
2023/07/19 04:37:32;;;;;;;6.80;3.20;;;20.50;99.90;;;;;;5033063;28;20065;-78
2023/07/19 04:39:57;;;;;;;5.25;3.00;;;20.50;99.90;;;;;;5015998;28;20036;-77
2023/07/19 04:42:23;;;;;;;5.53;2.70;;;20.50;99.90;;;;;;5016175;28;20378;-78
2023/07/19 04:44:49;;;;;;;7.28;3.30;;;20.50;99.90;;;;;;5033667;28;20029;-77
2023/07/19 04:47:15;;;;;;;5.32;3.10;;;20.50;99.90;;;;;;5033883;28;20109;-77
2023/07/19 04:49:41;;;;;;;5.60;3.10;;;20.50;99.90;;;;;;5033431;28;20352;-77
2023/07/19 04:52:07;;;;;;;6.60;3.50;;;20.50;99.90;;;;;;5016407;28;20053;-77
2023/07/19 04:54:32;;;;;;;5.15;3.00;;;20.50;99.90;;;;;;5015553;28;20026;-78
2023/07/19 04:56:58;;;;;;;6.63;3.17;;;20.50;99.90;;;;;;5015827;28;20088;-77
2023/07/19 04:59:24;;;;;;;7.38;3.28;;;20.60;99.90;;;;;;5016091;28;20040;-78
2023/07/19 05:01:49;;;;;;;5.82;3.05;;;20.60;99.90;;;;;;5015488;28;20095;-77
2023/07/19 05:04:15;;;;;;;6.95;3.35;;;20.50;99.90;;;;;;5033626;28;20045;-77
2023/07/19 05:06:40;;;;;;;10.02;3.30;;;20.60;99.90;;;;;;5015427;28;20049;-77
2023/07/19 05:09:09;;;;;;;8.13;3.17;;;20.60;99.90;;;;;;5016042;28;20499;-77
2023/07/19 05:11:35;;;;;;;6.13;3.10;;;20.60;99.90;;;;;;5015284;28;20378;-78
2023/07/19 05:14:01;;;;;;;5.88;3.45;;;20.60;99.90;;;;;;5033411;28;20026;-78
2023/07/19 05:16:26;;;;;;;8.00;3.50;;;20.60;99.90;;;;;;5032637;28;20030;-78
2023/07/19 05:18:52;;;;;;;7.07;3.40;;;20.60;99.90;;;;;;5032792;28;20022;-77
2023/07/19 05:21:18;;;;;;;6.50;3.40;;;20.60;99.90;;;;;;5032854;28;20045;-76
2023/07/19 05:23:44;;;;;;;6.28;3.30;;;20.60;99.90;;;;;;5045937;28;20025;-77
2023/07/19 05:26:09;;;;;;;5.97;3.75;;;20.70;99.90;;;;;;5023698;28;20026;-77
2023/07/19 05:28:36;;;;;;;5.47;3.80;;;20.70;99.90;;;;;;5021803;28;20104;-77
2023/07/19 05:31:05;;;;;;;7.30;3.95;;;20.80;99.90;;;;;;5050878;28;20033;-77
2023/07/19 05:33:32;;;;;;;8.20;3.60;;;20.80;99.90;;;;;;5028207;28;20485;-77
2023/07/19 05:36:00;;;;;;;6.63;3.47;;;20.80;99.90;;;;;;5052389;28;20033;-77
2023/07/19 05:38:26;;;;;;;5.72;3.40;;;20.80;99.90;;;;;;5033883;28;20095;-77
2023/07/19 05:40:51;;;;;;;6.53;3.35;;;20.80;99.90;;;;;;5021535;28;20083;-78
2023/07/19 05:43:18;;;;;;;8.50;3.22;;;20.80;99.90;;;;;;5019487;28;20025;-77
2023/07/19 05:45:44;;;;;;;8.68;3.65;;;20.80;99.90;;;;;;5033985;28;20028;-77
2023/07/19 05:48:09;;;;;;;7.70;3.90;;;20.90;99.90;;;;;;5039354;28;20029;-77
2023/07/19 05:50:37;;;;;;;5.10;3.25;;;20.90;99.90;;;;;;5038844;28;20029;-77
2023/07/19 05:53:03;;;;;;;9.43;3.70;;;21.00;99.90;;;;;;5037727;28;20071;-77
2023/07/19 05:55:28;;;;;;;8.07;3.72;;;21.00;99.90;;;;;;5036433;28;20061;-80
2023/07/19 05:57:54;;;;;;;8.23;3.40;;;21.00;99.90;;;;;;5018143;28;20498;-78
2023/07/19 06:00:24;;;;;;;5.78;3.78;;;21.00;99.90;;;;;;5035785;28;20029;-77
2023/07/19 06:02:51;;;;;;;5.22;3.13;;;21.10;99.90;;;;;;5020109;28;20025;-78
2023/07/19 06:05:17;;;;;;;7.05;3.50;;;21.10;99.90;;;;;;5029433;28;20064;-78
2023/07/19 06:07:43;;;;;;;7.07;3.28;;;21.20;99.90;;;;;;5018965;28;20029;-78
2023/07/19 06:10:09;;;;;;;9.65;3.70;;;21.20;99.90;;;;;;5031288;28;20025;-78
2023/07/19 06:12:34;;;;;;;11.05;3.80;;;21.30;99.90;;;;;;5020717;28;20393;-81
2023/07/19 06:15:00;;;;;;;7.30;3.22;;;21.30;99.90;;;;;;5018325;28;20025;-77
2023/07/19 06:17:25;;;;;;;6.80;3.55;;;21.40;99.90;;;;;;5035956;28;20117;-78
2023/07/19 06:19:51;;;;;;;8.45;3.67;;;21.40;99.90;;;;;;5041511;28;20025;-77
2023/07/19 06:22:16;;;;;;;5.50;3.42;;;21.50;99.90;;;;;;5039982;28;20029;-77
2023/07/19 06:24:42;;;;;;;6.95;3.78;;;21.50;99.90;;;;;;5017532;28;20028;-75
2023/07/19 06:27:08;;;;;;;8.48;3.50;;;21.60;99.90;;;;;;5035436;28;20032;-78
2023/07/19 06:29:34;;;;;;;8.07;3.17;;;21.60;99.90;;;;;;5035126;28;20021;-77
2023/07/19 06:31:59;;;;;;;10.07;3.17;;;21.60;99.90;;;;;;5035550;28;20076;-77
2023/07/19 06:34:25;;;;;;;6.40;3.25;;;21.60;99.90;;;;;;5033377;28;20429;-75
2023/07/19 06:36:51;;;;;;;9.25;3.15;;;21.60;99.90;;;;;;5014952;28;20125;-74
2023/07/19 06:39:16;;;;;;;7.93;3.42;;;21.70;99.90;;;;;;5016784;28;20021;-76
2023/07/19 06:41:42;;;;;;;6.72;3.30;;;21.70;99.90;;;;;;5017571;28;20486;-76
2023/07/19 06:44:08;;;;;;;6.40;3.33;;;21.80;99.90;;;;;;5016968;28;20025;-76
2023/07/19 06:46:33;;;;;;;6.72;3.30;;;21.80;99.90;;;;;;5034087;28;20451;-76
2023/07/19 06:48:59;;;;;;;10.30;3.50;;;21.90;99.90;;;;;;5016558;28;20036;-76
2023/07/19 06:51:26;;;;;;;5.95;3.10;;;21.90;99.90;;;;;;5016244;28;20130;-79
2023/07/19 06:53:51;;;;;;;5.20;3.42;;;22.00;99.90;;;;;;5034109;28;20778;-76
2023/07/19 06:56:17;;;;;;;5.85;3.00;;;22.00;99.90;;;;;;5034625;28;20030;-76
2023/07/19 06:58:42;;;;;;;8.05;3.47;;;22.10;99.90;;;;;;5033830;28;20029;-77
2023/07/19 07:01:08;;;;;;;6.85;3.38;;;22.10;99.90;;;;;;5016209;28;20474;-79
2023/07/19 07:03:34;;;;;;;6.18;3.22;;;22.10;99.90;;;;;;5029154;28;20025;-79
2023/07/19 07:06:00;;;;;;;5.68;2.95;;;22.20;99.90;;;;;;5034927;28;20033;-78
2023/07/19 07:08:26;;;;;;;5.25;2.80;;;22.20;99.90;;;;;;5016529;28;20036;-78
2023/07/19 07:10:52;;;;;;;4.97;2.97;;;22.20;99.90;;;;;;5016841;28;20017;-79
2023/07/19 07:13:17;;;;;;;5.28;3.05;;;22.30;99.90;;;;;;5019761;28;20030;-79
2023/07/19 07:15:43;;;;;;;6.72;3.35;;;22.30;99.90;;;;;;5034326;28;20100;-79
2023/07/19 07:18:08;;;;;;;8.60;2.80;;;22.40;99.90;;;;;;5016868;28;20029;-78
2023/07/19 07:20:35;;;;;;;7.10;2.78;;;22.40;99.90;;;;;;5016319;28;20036;-78
2023/07/19 07:23:01;;;;;;;6.97;2.88;;;22.40;99.90;;;;;;5013929;28;20052;-78
2023/07/19 07:25:27;;;;;;;9.75;3.50;;;22.40;99.90;;;;;;5008797;28;20026;-78
2023/07/19 07:27:52;;;;;;;9.00;3.15;;;22.50;99.90;;;;;;5034479;28;20037;-77
2023/07/19 07:30:19;;;;;;;6.13;2.72;;;22.50;99.90;;;;;;5034439;28;20259;-77
2023/07/19 07:32:45;;;;;;;7.93;3.10;;;22.60;99.90;;;;;;5014294;28;20030;-78
2023/07/19 07:35:11;;;;;;;6.63;2.67;;;22.60;99.90;;;;;;5016779;28;20400;-77
2023/07/19 07:37:36;;;;;;;7.45;2.85;;;22.70;99.90;;;;;;5016065;28;20025;-79
2023/07/19 07:40:03;;;;;;;4.95;2.70;;;22.70;99.90;;;;;;5016154;28;20025;-76
2023/07/19 07:42:28;;;;;;;4.57;2.55;;;22.80;99.90;;;;;;5015900;28;20121;-76
2023/07/19 07:44:54;;;;;;;5.40;2.53;;;22.80;99.90;;;;;;5034655;28;20017;-77
2023/07/19 07:47:20;;;;;;;6.75;2.80;;;22.90;99.90;;;;;;5032697;28;20497;-76
2023/07/19 07:49:46;;;;;;;4.18;2.55;;;22.90;99.90;;;;;;5014899;28;20112;-76
2023/07/19 07:52:15;;;;;;;5.25;2.78;;;22.90;99.90;;;;;;5034571;28;20018;-75
2023/07/19 07:54:40;;;;;;;5.72;2.70;;;23.00;99.90;;;;;;5015820;28;20033;-77
2023/07/19 07:57:06;;;;;;;4.45;2.38;;;23.00;99.90;;;;;;5033470;28;20033;-76
2023/07/19 07:59:32;;;;;;;5.65;2.40;;;23.00;99.90;;;;;;5015391;28;20052;-76
2023/07/19 08:01:57;;;;;;;7.40;2.70;;;23.10;99.90;;;;;;5014661;28;20472;-77
2023/07/19 08:04:23;;;;;;;6.72;2.63;;;23.20;99.90;;;;;;5032049;28;20052;-76
2023/07/19 08:06:48;;;;;;;6.57;3.03;;;23.20;99.90;;;;;;5014564;28;20044;-76
2023/07/19 08:09:14;;;;;;;6.65;3.00;;;23.20;99.90;;;;;;5015545;28;20071;-78
2023/07/19 08:11:40;;;;;;;4.70;2.30;;;23.20;99.90;;;;;;5033213;28;20084;-77
2023/07/19 08:14:05;;;;;;;4.75;2.30;;;23.30;99.90;;;;;;5016076;28;20032;-77
2023/07/19 08:16:31;;;;;;;4.88;2.30;;;23.30;99.90;;;;;;5033316;28;20029;-79
2023/07/19 08:18:56;;;;;;;5.85;2.60;;;23.30;99.90;;;;;;5015169;28;20426;-76
2023/07/19 08:21:25;;;;;;;5.43;2.50;;;23.40;99.90;;;;;;5033237;28;20104;-79
2023/07/19 08:23:55;;;;;;;4.65;2.30;;;23.50;99.90;;;;;;5011515;28;20025;-77
2023/07/19 08:26:21;;;;;;;7.30;2.72;;;23.50;99.90;;;;;;5014648;28;20057;-76
2023/07/19 08:28:47;;;;;;;3.75;2.20;;;23.60;99.90;;;;;;5032426;28;20041;-77
2023/07/19 08:31:14;;;;;;;6.57;2.13;;;23.60;99.70;;;;;;5033320;28;20026;-77
2023/07/19 08:33:40;;;;;;;3.88;2.40;;;23.70;99.90;;;;;;5014982;28;20025;-79
2023/07/19 08:36:06;;;;;;;5.70;1.75;;;23.80;99.90;;;;;;5015685;28;20036;-78
2023/07/19 08:38:31;;;;;;;5.25;2.10;;;23.80;99.70;;;;;;5015415;28;20025;-78
2023/07/19 08:41:02;;;;;;;4.45;1.63;;;23.90;98.90;;;;;;5014913;28;20120;-77
2023/07/19 08:43:29;;;;;;;3.47;2.13;;;23.90;98.20;;;;;;5011965;28;20036;-77
2023/07/19 08:45:57;;;;;;;4.60;2.20;;;23.90;98.00;;;;;;5013905;28;20124;-75
2023/07/19 08:48:23;;;;;;;7.35;2.05;;;24.00;98.10;;;;;;5028566;28;20032;-76
2023/07/19 08:50:57;;;;;;;3.78;1.98;;;24.00;97.90;;;;;;5014385;28;20040;-75
2023/07/19 08:53:24;;;;;;;5.10;2.20;;;24.10;97.20;;;;;;5030656;28;20104;-78
2023/07/19 08:55:50;;;;;;;3.83;2.10;;;24.10;96.80;;;;;;5017976;28;20055;-78
2023/07/19 08:58:17;;;;;;;4.00;1.92;;;24.10;97.00;;;;;;5034023;28;20041;-77
2023/07/19 09:00:46;;;;;;;3.53;2.13;;;24.10;96.90;;;;;;5034465;28;20029;-78
2023/07/19 09:03:12;;;;;;;2.78;1.80;;;24.20;96.20;;;;;;5032982;28;20025;-78
2023/07/19 09:05:38;;;;;;;4.43;2.03;;;24.30;95.90;;;;;;5017169;28;20167;-78
2023/07/19 09:08:04;;;;;;;3.50;1.70;;;24.40;95.30;;;;;;5038605;28;20029;-78
2023/07/19 09:10:30;;;;;;;4.72;1.85;;;24.40;94.60;;;;;;5032564;28;20029;-79
2023/07/19 09:12:57;;;;;;;3.95;2.03;;;24.50;95.10;;;;;;5015880;28;20036;-78
2023/07/19 09:15:23;;;;;;;3.60;1.90;;;24.60;95.10;;;;;;5032813;28;20374;-76
2023/07/19 09:17:49;;;;;;;4.50;1.80;;;24.60;94.70;;;;;;5018097;28;20469;-78
2023/07/19 09:20:20;;;;;;;3.33;1.70;;;24.70;94.70;;;;;;5034067;28;20072;-78
2023/07/19 09:22:45;;;;;;;4.07;1.85;;;24.70;94.40;;;;;;5012866;28;20040;-77
2023/07/19 09:25:11;;;;;;;3.95;1.85;;;24.80;93.90;;;;;;5030849;28;20128;-76
2023/07/19 09:27:41;;;;;;;4.80;2.15;;;24.90;93.20;;;;;;5014549;28;20056;-80
2023/07/19 09:30:13;;;;;;;4.03;1.60;;;24.90;91.70;;;;;;5030484;28;20112;-77
2023/07/19 09:32:40;;;;;;;4.25;1.15;;;25.00;91.80;;;;;;5030620;28;20025;-78
2023/07/19 09:35:07;;;;;;;7.18;1.50;;;25.00;90.60;;;;;;5012547;28;20045;-78
2023/07/19 09:37:33;;;;;;;4.82;1.60;;;25.00;90.00;;;;;;5013842;28;20351;-78
2023/07/19 09:40:01;;;;;;;293.15;27.33;;;25.10;88.80;;;;;;5031452;28;20086;-76
2023/07/19 09:42:28;;;;;;;24.48;3.00;;;25.10;89.80;;;;;;5031606;28;20048;-76
2023/07/19 09:44:54;;;;;;;6.32;1.60;;;25.10;88.80;;;;;;5031197;28;20420;-76
2023/07/19 09:47:23;;;;;;;4.05;1.38;;;25.20;88.90;;;;;;5004560;28;20436;-78
2023/07/19 09:49:48;;;;;;;34.25;4.30;;;25.20;89.10;;;;;;5022528;28;20105;-76
2023/07/19 09:52:17;;;;;;;7.25;1.60;;;25.20;88.10;;;;;;5011672;28;20113;-76
2023/07/19 09:54:44;;;;;;;4.05;1.50;;;25.30;89.70;;;;;;5029128;28;20022;-76
2023/07/19 09:57:11;;;;;;;15.05;2.63;;;25.40;90.20;;;;;;5013035;28;20030;-76
2023/07/19 09:59:49;;;;;;;2.97;1.30;;;25.40;90.60;;;;;;5011609;28;20056;-79
2023/07/19 10:02:15;;;;;;;6.03;1.92;;;25.40;89.60;;;;;;5030754;28;20060;-77
2023/07/19 10:04:44;;;;;;;4.45;1.33;;;25.50;89.10;;;;;;5030312;28;20080;-77
2023/07/19 10:07:20;;;;;;;1.80;1.10;;;25.60;88.30;;;;;;5013633;28;20073;-77
2023/07/19 10:09:59;;;;;;;7.32;1.13;;;25.60;86.40;;;;;;5029956;28;20034;-76
2023/07/19 10:12:24;;;;;;;4.50;1.20;;;25.70;87.10;;;;;;5009365;28;20034;-76
2023/07/19 10:15:03;;;;;;;4.60;1.23;;;25.70;87.50;;;;;;5013962;28;20129;-76
2023/07/19 10:17:38;;;;;;;2.67;1.10;;;25.80;86.60;;;;;;5013263;28;20037;-76
2023/07/19 10:20:03;;;;;;;2.72;1.27;;;25.90;86.50;;;;;;5029552;28;20041;-77
2023/07/19 10:22:49;;;;;;;4.95;1.20;;;25.90;84.70;;;;;;5031674;28;20025;-75
2023/07/19 10:25:29;;;;;;;3.72;1.20;;;25.90;84.70;;;;;;5012788;28;20025;-75
2023/07/19 10:28:25;;;;;;;4.53;1.27;;;26.00;84.70;;;;;;5033598;28;20032;-75
2023/07/19 10:31:03;;;;;;;3.72;1.23;;;26.00;82.10;;;;;;5009673;28;20052;-76
2023/07/19 10:33:31;;;;;;;4.40;1.27;;;26.10;80.60;;;;;;5030081;28;20033;-76
2023/07/19 10:36:05;;;;;;;5.97;1.27;;;26.10;80.50;;;;;;5035070;28;20040;-77
2023/07/19 10:38:30;;;;;;;4.43;1.50;;;26.20;79.90;;;;;;5013562;28;20044;-79
2023/07/19 10:40:59;;;;;;;6.45;1.83;;;26.30;79.60;;;;;;5035988;28;20026;-77
2023/07/19 10:43:26;;;;;;;8.07;1.10;;;26.40;80.40;;;;;;5034726;28;20455;-76
2023/07/19 10:45:53;;;;;;;2.95;1.35;;;26.40;79.00;;;;;;5034095;28;20017;-77
2023/07/19 10:48:29;;;;;;;2.70;1.10;;;26.50;79.10;;;;;;5013595;28;20071;-77
2023/07/19 10:50:56;;;;;;;3.72;1.40;;;26.50;79.60;;;;;;5033269;28;20018;-76
2023/07/19 10:53:23;;;;;;;4.00;1.67;;;26.60;80.50;;;;;;5029848;28;20029;-78
2023/07/19 10:55:55;;;;;;;6.25;1.95;;;26.70;81.10;;;;;;5034447;28;20029;-77
2023/07/19 10:58:21;;;;;;;4.53;1.65;;;26.90;81.20;;;;;;5034371;28;20057;-77
2023/07/19 11:00:47;;;;;;;4.53;1.63;;;27.20;81.20;;;;;;5016686;28;20033;-78
2023/07/19 11:03:14;;;;;;;5.40;1.80;;;27.30;80.70;;;;;;5017008;28;20026;-77
2023/07/19 11:05:51;;;;;;;3.03;1.55;;;27.50;79.40;;;;;;5017557;28;20389;-77
2023/07/19 11:08:24;;;;;;;4.07;1.45;;;27.60;78.90;;;;;;5018511;28;20062;-77
2023/07/19 11:10:51;;;;;;;6.38;2.10;;;27.50;78.70;;;;;;5032908;28;20525;-78
2023/07/19 11:13:18;;;;;;;4.63;1.70;;;27.70;79.30;;;;;;5016805;28;20065;-77
2023/07/19 11:15:48;;;;;;;2.33;1.60;;;27.70;79.10;;;;;;5016280;28;20037;-77
2023/07/19 11:18:27;;;;;;;7.38;1.80;;;27.70;78.60;;;;;;5020010;28;20021;-76
2023/07/19 11:20:53;;;;;;;4.47;1.48;;;27.80;77.80;;;;;;5017508;28;20068;-76
2023/07/19 11:23:19;;;;;;;3.55;1.45;;;27.90;78.80;;;;;;5036465;28;20029;-76
2023/07/19 11:25:46;;;;;;;2.30;1.67;;;27.90;78.40;;;;;;5038655;28;20418;-76
2023/07/19 11:28:12;;;;;;;3.80;1.77;;;27.90;78.50;;;;;;5016286;28;20042;-76
2023/07/19 11:30:40;;;;;;;7.28;2.88;;;27.90;78.60;;;;;;5015061;28;20080;-76
2023/07/19 11:33:07;;;;;;;3.97;1.80;;;28.00;78.90;;;;;;5017811;28;20036;-77
2023/07/19 11:35:33;;;;;;;6.03;2.13;;;28.10;79.10;;;;;;5016941;28;20033;-76
2023/07/19 11:37:59;;;;;;;4.53;2.03;;;28.10;78.70;;;;;;5015103;28;20041;-76
2023/07/19 11:40:25;;;;;;;4.25;1.73;;;28.10;78.80;;;;;;5015249;28;20029;-76
2023/07/19 11:42:57;;;;;;;2.88;1.60;;;28.10;79.50;;;;;;5014390;28;20104;-76
2023/07/19 11:45:25;;;;;;;4.82;1.65;;;28.20;79.10;;;;;;5017482;28;20088;-76
2023/07/19 11:47:54;;;;;;;5.38;1.85;;;28.40;80.50;;;;;;5016160;28;20025;-75
2023/07/19 11:50:23;;;;;;;5.50;2.20;;;28.40;78.90;;;;;;5032543;28;20021;-75
2023/07/19 11:53:03;;;;;;;2.45;1.88;;;28.50;79.00;;;;;;5015018;28;20537;-76
2023/07/19 11:55:29;;;;;;;5.15;2.00;;;28.60;79.20;;;;;;5035948;28;20029;-76
2023/07/19 11:58:02;;;;;;;3.15;1.77;;;28.60;79.10;;;;;;5014405;28;20033;-76
2023/07/19 12:00:29;;;;;;;6.90;1.92;;;28.60;78.90;;;;;;5032744;28;20466;-75
2023/07/19 12:02:55;;;;;;;5.30;2.03;;;28.60;79.70;;;;;;5020644;28;20029;-76
2023/07/19 12:05:23;;;;;;;2.45;1.55;;;28.70;79.50;;;;;;5033141;28;20056;-76
2023/07/19 12:07:50;;;;;;;4.43;1.70;;;28.80;79.40;;;;;;5017323;28;20024;-76
2023/07/19 12:10:20;;;;;;;6.00;1.67;;;28.80;79.50;;;;;;5031304;28;20113;-76
2023/07/19 12:12:48;;;;;;;4.18;2.33;;;28.70;79.60;;;;;;5018275;28;20021;-77
2023/07/19 12:15:14;;;;;;;4.93;1.92;;;28.70;79.60;;;;;;5018962;28;20029;-76
2023/07/19 12:17:40;;;;;;;4.45;2.22;;;28.60;80.00;;;;;;5034206;28;20029;-76
2023/07/19 12:20:07;;;;;;;4.30;2.05;;;28.60;80.10;;;;;;5014101;28;20103;-77
2023/07/19 12:22:34;;;;;;;4.45;2.03;;;28.60;79.50;;;;;;5014938;28;20112;-77
2023/07/19 12:25:01;;;;;;;4.32;1.80;;;28.60;80.10;;;;;;5016002;28;20108;-77
2023/07/19 12:27:27;;;;;;;5.57;1.77;;;28.90;77.60;;;;;;5016343;28;20029;-77
2023/07/19 12:29:53;;;;;;;6.45;1.63;;;29.20;75.80;;;;;;5031953;28;20036;-77
2023/07/19 12:32:18;;;;;;;12.63;2.67;;;29.40;72.90;;;;;;5032433;28;20041;-77
2023/07/19 12:34:45;;;;;;;5.35;2.38;;;29.60;71.60;;;;;;5013726;28;20022;-76
2023/07/19 12:37:14;;;;;;;7.63;2.28;;;29.60;71.10;;;;;;5033364;28;20184;-76
2023/07/19 12:39:40;;;;;;;5.72;2.33;;;29.50;69.80;;;;;;5037142;28;20108;-76
2023/07/19 12:42:10;;;;;;;5.45;2.17;;;29.30;70.10;;;;;;5031988;28;20029;-76
2023/07/19 12:44:36;;;;;;;11.40;2.28;;;29.30;74.90;;;;;;5013780;28;20029;-76
2023/07/19 12:47:06;;;;;;;5.43;2.42;;;28.80;81.20;;;;;;5014080;28;20033;-76